Woodville, Idaho
Current Conditions -  °F | °C
As of 4:53 PM on Monday 20 Oct 2014 (Local Time) from KIDA Reporting Station
Scattered Clouds Scattered Clouds  
Wind Chill: 72°   Ceiling: Unl
Heat Index: 72°   Visibility: 10mi
Dew Point: 37°   Wind: 7mph
Humidity: 28%   Direction: 180°S
Pressure: 29.94"   Gusts: NA
Location:  43.2015°N, 111.522°W
Report Text: KIDA 202253Z 18006KT 10SM SCT100 22/03 A2994 RMK AO2 SLP120 VIRGA NE T02220028
Loading
Personal Weather Stations






























Interactive Weather Map
Tropical Storm Tracking
New forecast layout! Learn more

10-Day Weather Forecast

Advertisements
Track Severe Weather on mobile